sensor_id;sensor_type;location;lat;lon;timestamp;pressure;altitude;pressure_sealevel;temperature;humidity
33161;BME280;19522;45.656;11.302;2023-08-24T00:01:36;98482.53;;;26.06;67.82
33161;BME280;19522;45.656;11.302;2023-08-24T00:04:02;98486.97;;;26.12;67.27
33161;BME280;19522;45.656;11.302;2023-08-24T00:06:27;98481.69;;;26.11;67.58
33161;BME280;19522;45.656;11.302;2023-08-24T00:08:53;98486.69;;;26.14;67.27
33161;BME280;19522;45.656;11.302;2023-08-24T00:11:18;98454.78;;;25.96;67.85
33161;BME280;19522;45.656;11.302;2023-08-24T00:13:44;98470.38;;;25.97;67.41
33161;BME280;19522;45.656;11.302;2023-08-24T00:16:19;98473.63;;;26.04;67.19
33161;BME280;19522;45.656;11.302;2023-08-24T00:18:46;98438.81;;;25.77;67.42
33161;BME280;19522;45.656;11.302;2023-08-24T00:21:15;98489.22;;;26.05;67.43
33161;BME280;19522;45.656;11.302;2023-08-24T00:23:42;98484.19;;;26.07;67.61
33161;BME280;19522;45.656;11.302;2023-08-24T00:26:09;98465.44;;;25.83;67.74
33161;BME280;19522;45.656;11.302;2023-08-24T00:28:34;98482.97;;;25.84;68.14
33161;BME280;19522;45.656;11.302;2023-08-24T00:31:00;98463.56;;;25.74;68.58
33161;BME280;19522;45.656;11.302;2023-08-24T00:33:26;98484.97;;;25.78;68.66
33161;BME280;19522;45.656;11.302;2023-08-24T00:35:51;98439.25;;;25.50;68.61
33161;BME280;19522;45.656;11.302;2023-08-24T00:38:17;98487.69;;;25.83;68.36
33161;BME280;19522;45.656;11.302;2023-08-24T00:40:42;98484.63;;;25.85;68.50
33161;BME280;19522;45.656;11.302;2023-08-24T00:43:09;98404.84;;;25.35;68.27
33161;BME280;19522;45.656;11.302;2023-08-24T00:45:34;98476.28;;;25.85;68.50
33161;BME280;19522;45.656;11.302;2023-08-24T00:48:01;98457.75;;;25.70;68.51
33161;BME280;19522;45.656;11.302;2023-08-24T00:50:27;98477.69;;;25.82;68.32
33161;BME280;19522;45.656;11.302;2023-08-24T00:52:53;98429.72;;;25.61;68.64
33161;BME280;19522;45.656;11.302;2023-08-24T00:55:20;98474.91;;;25.82;69.04
33161;BME280;19522;45.656;11.302;2023-08-24T00:57:46;98454.06;;;25.80;68.69
33161;BME280;19522;45.656;11.302;2023-08-24T01:00:13;98467.03;;;25.95;68.45
33161;BME280;19522;45.656;11.302;2023-08-24T01:02:39;98465.13;;;25.90;68.54
33161;BME280;19522;45.656;11.302;2023-08-24T01:05:05;98468.81;;;25.80;69.06
33161;BME280;19522;45.656;11.302;2023-08-24T01:07:33;98468.53;;;25.82;69.59
33161;BME280;19522;45.656;11.302;2023-08-24T01:09:59;98465.50;;;25.78;69.67
33161;BME280;19522;45.656;11.302;2023-08-24T01:12:56;98458.66;;;25.60;69.70
33161;BME280;19522;45.656;11.302;2023-08-24T01:15:34;98462.88;;;25.47;69.80
33161;BME280;19522;45.656;11.302;2023-08-24T01:18:05;98461.25;;;25.41;69.87
33161;BME280;19522;45.656;11.302;2023-08-24T01:20:31;98473.69;;;25.54;69.85
33161;BME280;19522;45.656;11.302;2023-08-24T01:23:18;98472.28;;;25.57;69.62
33161;BME280;19522;45.656;11.302;2023-08-24T01:25:53;98470.34;;;25.57;69.70
33161;BME280;19522;45.656;11.302;2023-08-24T01:28:22;98470.69;;;25.45;70.32
33161;BME280;19522;45.656;11.302;2023-08-24T01:30:49;98473.44;;;25.45;70.80
33161;BME280;19522;45.656;11.302;2023-08-24T01:33:14;98465.72;;;25.42;70.53
33161;BME280;19522;45.656;11.302;2023-08-24T01:35:41;98467.34;;;25.48;70.54
33161;BME280;19522;45.656;11.302;2023-08-24T01:38:07;98470.66;;;25.50;70.73
33161;BME280;19522;45.656;11.302;2023-08-24T01:40:43;98468.69;;;25.51;70.77
33161;BME280;19522;45.656;11.302;2023-08-24T01:43:12;98441.84;;;25.31;70.12
33161;BME280;19522;45.656;11.302;2023-08-24T01:45:39;98440.72;;;25.32;70.15
33161;BME280;19522;45.656;11.302;2023-08-24T01:48:07;98427.94;;;25.26;70.37
33161;BME280;19522;45.656;11.302;2023-08-24T01:50:35;98455.66;;;25.46;70.24
33161;BME280;19522;45.656;11.302;2023-08-24T01:53:02;98436.53;;;25.34;70.00
33161;BME280;19522;45.656;11.302;2023-08-24T01:55:27;98462.88;;;25.47;70.11
33161;BME280;19522;45.656;11.302;2023-08-24T01:57:56;98480.34;;;25.58;69.97
33161;BME280;19522;45.656;11.302;2023-08-24T02:00:22;98416.31;;;25.18;70.03
33161;BME280;19522;45.656;11.302;2023-08-24T02:02:48;98443.47;;;25.42;69.67
33161;BME280;19522;45.656;11.302;2023-08-24T02:05:13;98461.75;;;25.54;69.41
33161;BME280;19522;45.656;11.302;2023-08-24T02:07:39;98473.13;;;25.57;69.89
33161;BME280;19522;45.656;11.302;2023-08-24T02:10:06;98468.44;;;25.47;70.62
33161;BME280;19522;45.656;11.302;2023-08-24T02:12:32;98465.97;;;25.41;69.84
33161;BME280;19522;45.656;11.302;2023-08-24T02:14:58;98436.88;;;25.23;69.95
33161;BME280;19522;45.656;11.302;2023-08-24T02:17:23;98457.94;;;25.34;70.18
33161;BME280;19522;45.656;11.302;2023-08-24T02:19:49;98449.00;;;25.37;69.93
33161;BME280;19522;45.656;11.302;2023-08-24T02:22:14;98434.97;;;25.13;70.66
33161;BME280;19522;45.656;11.302;2023-08-24T02:24:40;98436.94;;;25.07;71.84
33161;BME280;19522;45.656;11.302;2023-08-24T02:27:05;98445.22;;;25.23;71.61
33161;BME280;19522;45.656;11.302;2023-08-24T02:29:34;98458.81;;;25.24;71.24
33161;BME280;19522;45.656;11.302;2023-08-24T02:31:59;98456.53;;;25.36;70.58
33161;BME280;19522;45.656;11.302;2023-08-24T02:34:25;98403.03;;;25.10;71.07
33161;BME280;19522;45.656;11.302;2023-08-24T02:36:50;98440.94;;;25.46;70.60
33161;BME280;19522;45.656;11.302;2023-08-24T02:39:16;98429.59;;;25.27;71.53
33161;BME280;19522;45.656;11.302;2023-08-24T02:41:41;98421.31;;;25.22;71.54
33161;BME280;19522;45.656;11.302;2023-08-24T02:44:07;98432.69;;;25.25;71.50
33161;BME280;19522;45.656;11.302;2023-08-24T02:46:32;98377.81;;;24.96;71.55
33161;BME280;19522;45.656;11.302;2023-08-24T02:48:58;98429.34;;;25.28;71.91
33161;BME280;19522;45.656;11.302;2023-08-24T02:51:23;98424.91;;;25.27;71.76
33161;BME280;19522;45.656;11.302;2023-08-24T02:53:50;98412.44;;;25.19;72.10
33161;BME280;19522;45.656;11.302;2023-08-24T02:56:15;98422.44;;;25.15;72.44
33161;BME280;19522;45.656;11.302;2023-08-24T02:58:41;98399.75;;;24.98;72.42
33161;BME280;19522;45.656;11.302;2023-08-24T03:01:07;98341.63;;;24.41;73.65
33161;BME280;19522;45.656;11.302;2023-08-24T03:03:34;98399.59;;;24.58;74.23
33161;BME280;19522;45.656;11.302;2023-08-24T03:06:02;98416.78;;;24.65;74.23
33161;BME280;19522;45.656;11.302;2023-08-24T03:08:29;98349.13;;;24.35;74.32
33161;BME280;19522;45.656;11.302;2023-08-24T03:10:55;98412.03;;;24.81;73.55
33161;BME280;19522;45.656;11.302;2023-08-24T03:13:21;98418.13;;;24.94;73.10
33161;BME280;19522;45.656;11.302;2023-08-24T03:15:46;98423.63;;;24.99;73.27
33161;BME280;19522;45.656;11.302;2023-08-24T03:18:13;98424.53;;;24.89;73.38
33161;BME280;19522;45.656;11.302;2023-08-24T03:20:39;98416.75;;;24.86;73.21
33161;BME280;19522;45.656;11.302;2023-08-24T03:23:05;98418.16;;;24.83;73.41
33161;BME280;19522;45.656;11.302;2023-08-24T03:25:35;98414.78;;;24.86;73.44
33161;BME280;19522;45.656;11.302;2023-08-24T03:28:03;98410.34;;;24.91;72.93
33161;BME280;19522;45.656;11.302;2023-08-24T03:30:29;98384.03;;;24.67;73.18
33161;BME280;19522;45.656;11.302;2023-08-24T03:32:54;98417.28;;;24.83;73.49
33161;BME280;19522;45.656;11.302;2023-08-24T03:35:20;98414.81;;;24.81;73.30
33161;BME280;19522;45.656;11.302;2023-08-24T03:37:45;98425.09;;;24.81;73.75
33161;BME280;19522;45.656;11.302;2023-08-24T03:40:12;98357.72;;;24.44;73.39
33161;BME280;19522;45.656;11.302;2023-08-24T03:42:37;98418.44;;;24.77;74.09
33161;BME280;19522;45.656;11.302;2023-08-24T03:45:03;98412.91;;;24.71;74.27
33161;BME280;19522;45.656;11.302;2023-08-24T03:47:29;98381.00;;;24.48;73.90
33161;BME280;19522;45.656;11.302;2023-08-24T03:49:54;98423.19;;;24.71;74.22
33161;BME280;19522;45.656;11.302;2023-08-24T03:52:20;98425.13;;;24.70;73.87
33161;BME280;19522;45.656;11.302;2023-08-24T03:54:46;98430.66;;;24.81;73.94
33161;BME280;19522;45.656;11.302;2023-08-24T03:57:11;98405.97;;;24.64;73.88
33161;BME280;19522;45.656;11.302;2023-08-24T03:59:37;98429.53;;;24.82;74.04
33161;BME280;19522;45.656;11.302;2023-08-24T04:02:02;98436.50;;;24.69;74.63
33161;BME280;19522;45.656;11.302;2023-08-24T04:04:30;98431.22;;;24.72;74.57
33161;BME280;19522;45.656;11.302;2023-08-24T04:06:55;98435.13;;;24.61;75.34
33161;BME280;19522;45.656;11.302;2023-08-24T04:09:21;98335.06;;;23.95;75.22
33161;BME280;19522;45.656;11.302;2023-08-24T04:11:47;98380.22;;;24.27;75.05
33161;BME280;19522;45.656;11.302;2023-08-24T04:14:12;98430.94;;;24.58;74.57
33161;BME280;19522;45.656;11.302;2023-08-24T04:16:39;98396.03;;;24.37;74.41
33161;BME280;19522;45.656;11.302;2023-08-24T04:19:04;98420.44;;;24.40;75.63
33161;BME280;19522;45.656;11.302;2023-08-24T04:21:30;98420.44;;;24.40;75.34
33161;BME280;19522;45.656;11.302;2023-08-24T04:23:55;98409.09;;;24.31;75.37
33161;BME280;19522;45.656;11.302;2023-08-24T04:26:24;98433.72;;;24.48;75.51
33161;BME280;19522;45.656;11.302;2023-08-24T04:28:49;98437.63;;;24.42;76.21
33161;BME280;19522;45.656;11.302;2023-08-24T04:31:15;98445.69;;;24.43;76.45
33161;BME280;19522;45.656;11.302;2023-08-24T04:33:40;98447.09;;;24.46;76.04
33161;BME280;19522;45.656;11.302;2023-08-24T04:36:06;98452.66;;;24.36;76.81
33161;BME280;19522;45.656;11.302;2023-08-24T04:38:32;98423.78;;;24.21;76.71
33161;BME280;19522;45.656;11.302;2023-08-24T04:40:57;98448.75;;;24.42;76.63
33161;BME280;19522;45.656;11.302;2023-08-24T04:43:23;98451.53;;;24.37;76.92
33161;BME280;19522;45.656;11.302;2023-08-24T04:45:53;98411.03;;;24.10;76.88
33161;BME280;19522;45.656;11.302;2023-08-24T04:48:20;98456.50;;;24.40;76.92
33161;BME280;19522;45.656;11.302;2023-08-24T04:50:49;98456.53;;;24.35;77.07
33161;BME280;19522;45.656;11.302;2023-08-24T04:53:18;98472.88;;;24.36;76.96
33161;BME280;19522;45.656;11.302;2023-08-24T04:55:44;98446.00;;;24.26;77.08
33161;BME280;19522;45.656;11.302;2023-08-24T04:58:10;98446.56;;;24.29;76.79
33161;BME280;19522;45.656;11.302;2023-08-24T05:00:37;98470.94;;;24.47;76.73
33161;BME280;19522;45.656;11.302;2023-08-24T05:03:04;98434.88;;;24.32;76.38
33161;BME280;19522;45.656;11.302;2023-08-24T05:05:30;98452.63;;;24.46;76.26
33161;BME280;19522;45.656;11.302;2023-08-24T05:07:57;98451.22;;;24.43;76.46
33161;BME280;19522;45.656;11.302;2023-08-24T05:10:23;98477.31;;;24.53;76.63
33161;BME280;19522;45.656;11.302;2023-08-24T05:12:49;98472.06;;;24.46;76.82
33161;BME280;19522;45.656;11.302;2023-08-24T05:15:14;98444.88;;;24.38;76.91
33161;BME280;19522;45.656;11.302;2023-08-24T05:17:40;98469.53;;;24.55;76.61
33161;BME280;19522;45.656;11.302;2023-08-24T05:20:08;98465.66;;;24.46;77.50
33161;BME280;19522;45.656;11.302;2023-08-24T05:22:38;98480.63;;;24.55;77.07
33161;BME280;19522;45.656;11.302;2023-08-24T05:25:03;98468.97;;;24.53;77.24
33161;BME280;19522;45.656;11.302;2023-08-24T05:27:30;98470.13;;;24.52;77.07
33161;BME280;19522;45.656;11.302;2023-08-24T05:29:55;98401.88;;;24.20;77.24
33161;BME280;19522;45.656;11.302;2023-08-24T05:32:21;98455.94;;;24.48;77.17
33161;BME280;19522;45.656;11.302;2023-08-24T05:34:47;98468.97;;;24.53;77.13
33161;BME280;19522;45.656;11.302;2023-08-24T05:37:12;98467.59;;;24.61;77.17
33161;BME280;19522;45.656;11.302;2023-08-24T05:39:38;98426.28;;;24.33;76.90
33161;BME280;19522;45.656;11.302;2023-08-24T05:42:04;98464.81;;;24.66;76.85
33161;BME280;19522;45.656;11.302;2023-08-24T05:44:29;98468.69;;;24.85;76.36
33161;BME280;19522;45.656;11.302;2023-08-24T05:46:55;98463.13;;;24.80;76.16
33161;BME280;19522;45.656;11.302;2023-08-24T05:49:20;98416.56;;;24.46;76.47
33161;BME280;19522;45.656;11.302;2023-08-24T05:51:45;98468.69;;;24.80;76.26
33161;BME280;19522;45.656;11.302;2023-08-24T05:54:11;98475.31;;;24.89;76.22
33161;BME280;19522;45.656;11.302;2023-08-24T05:56:38;98476.69;;;24.97;76.40
33161;BME280;19522;45.656;11.302;2023-08-24T05:59:04;98439.25;;;24.84;76.31
33161;BME280;19522;45.656;11.302;2023-08-24T06:01:32;98432.28;;;24.82;76.12
33161;BME280;19522;45.656;11.302;2023-08-24T06:03:58;98468.59;;;25.06;75.71
33161;BME280;19522;45.656;11.302;2023-08-24T06:06:23;98468.59;;;25.11;75.56
33161;BME280;19522;45.656;11.302;2023-08-24T06:08:49;98430.28;;;24.98;75.26
33161;BME280;19522;45.656;11.302;2023-08-24T06:11:14;98469.97;;;25.19;75.81
33161;BME280;19522;45.656;11.302;2023-08-24T06:13:40;98456.88;;;25.19;75.57
33161;BME280;19522;45.656;11.302;2023-08-24T06:16:05;98470.97;;;25.44;75.12
33161;BME280;19522;45.656;11.302;2023-08-24T06:18:31;98427.94;;;25.26;74.81
33161;BME280;19522;45.656;11.302;2023-08-24T06:20:56;98471.47;;;25.56;74.89
33161;BME280;19522;45.656;11.302;2023-08-24T06:23:22;98464.75;;;25.62;74.22
33161;BME280;19522;45.656;11.302;2023-08-24T06:25:47;98462.78;;;25.68;73.91
33161;BME280;19522;45.656;11.302;2023-08-24T06:28:13;98465.41;;;25.89;73.00
33161;BME280;19522;45.656;11.302;2023-08-24T06:30:40;98464.75;;;26.02;72.22
33161;BME280;19522;45.656;11.302;2023-08-24T06:33:06;98464.91;;;26.21;71.42
33161;BME280;19522;45.656;11.302;2023-08-24T06:35:33;98458.31;;;26.41;71.27
33161;BME280;19522;45.656;11.302;2023-08-24T06:37:58;98460.91;;;26.62;71.04
33161;BME280;19522;45.656;11.302;2023-08-24T06:40:24;98466.84;;;26.85;70.07
33161;BME280;19522;45.656;11.302;2023-08-24T06:42:49;98425.38;;;26.83;68.47
33161;BME280;19522;45.656;11.302;2023-08-24T06:45:15;98441.69;;;27.14;68.26
33161;BME280;19522;45.656;11.302;2023-08-24T06:47:42;98461.28;;;27.52;67.33
33161;BME280;19522;45.656;11.302;2023-08-24T06:50:08;98453.59;;;27.82;66.12
33161;BME280;19522;45.656;11.302;2023-08-24T06:52:33;98439.72;;;27.96;65.62
33161;BME280;19522;45.656;11.302;2023-08-24T06:54:59;98455.28;;;28.36;64.00
33161;BME280;19522;45.656;11.302;2023-08-24T06:57:25;98458.78;;;28.60;63.22
33161;BME280;19522;45.656;11.302;2023-08-24T06:59:50;98454.16;;;28.84;62.17
33161;BME280;19522;45.656;11.302;2023-08-24T07:02:16;98448.66;;;28.92;60.28
33161;BME280;19522;45.656;11.302;2023-08-24T07:04:43;98427.97;;;29.07;60.48
33161;BME280;19522;45.656;11.302;2023-08-24T07:07:08;98442.03;;;29.44;59.26
33161;BME280;19522;45.656;11.302;2023-08-24T07:09:37;98420.25;;;29.55;58.32
33161;BME280;19522;45.656;11.302;2023-08-24T07:12:03;98386.69;;;29.55;57.41
33161;BME280;19522;45.656;11.302;2023-08-24T07:14:31;98435.72;;;30.12;56.78
33161;BME280;19522;45.656;11.302;2023-08-24T07:16:59;98449.56;;;30.40;56.27
33161;BME280;19522;45.656;11.302;2023-08-24T07:19:25;98436.13;;;30.51;55.76
33161;BME280;19522;45.656;11.302;2023-08-24T07:21:52;98443.38;;;30.74;55.04
33161;BME280;19522;45.656;11.302;2023-08-24T07:24:17;98435.53;;;30.94;55.02
33161;BME280;19522;45.656;11.302;2023-08-24T07:26:46;98447.19;;;31.19;53.84
33161;BME280;19522;45.656;11.302;2023-08-24T07:29:12;98451.53;;;31.43;53.17
33161;BME280;19522;45.656;11.302;2023-08-24T07:31:37;98443.78;;;31.48;52.73
33161;BME280;19522;45.656;11.302;2023-08-24T07:34:03;98437.72;;;31.64;51.96
33161;BME280;19522;45.656;11.302;2023-08-24T07:36:32;98427.66;;;31.72;52.11
33161;BME280;19522;45.656;11.302;2023-08-24T07:38:57;98443.84;;;32.01;51.10
33161;BME280;19522;45.656;11.302;2023-08-24T07:41:23;98441.03;;;32.27;50.11
33161;BME280;19522;45.656;11.302;2023-08-24T07:43:48;98408.28;;;32.23;49.69
33161;BME280;19522;45.656;11.302;2023-08-24T07:46:17;98427.31;;;32.26;48.66
33161;BME280;19522;45.656;11.302;2023-08-24T07:48:42;98438.69;;;32.47;49.39
33161;BME280;19522;45.656;11.302;2023-08-24T07:51:08;98423.25;;;32.62;48.73
33161;BME280;19522;45.656;11.302;2023-08-24T07:53:33;98430.47;;;32.89;48.53
33161;BME280;19522;45.656;11.302;2023-08-24T07:56:00;98421.00;;;33.03;48.19
33161;BME280;19522;45.656;11.302;2023-08-24T07:58:27;98430.06;;;33.38;46.98
33161;BME280;19522;45.656;11.302;2023-08-24T08:00:53;98415.44;;;33.45;45.42
33161;BME280;19522;45.656;11.302;2023-08-24T08:03:19;98431.16;;;33.46;45.07
33161;BME280;19522;45.656;11.302;2023-08-24T08:05:45;98441.03;;;33.52;44.74
33161;BME280;19522;45.656;11.302;2023-08-24T08:08:13;98437.81;;;33.42;43.50
33161;BME280;19522;45.656;11.302;2023-08-24T08:10:38;98408.06;;;33.32;43.17
33161;BME280;19522;45.656;11.302;2023-08-24T08:13:07;98432.53;;;33.40;43.57
33161;BME280;19522;45.656;11.302;2023-08-24T08:15:33;98433.94;;;33.25;42.87
33161;BME280;19522;45.656;11.302;2023-08-24T08:17:59;98442.84;;;33.27;43.60
33161;BME280;19522;45.656;11.302;2023-08-24T08:20:24;98412.94;;;33.22;43.51
33161;BME280;19522;45.656;11.302;2023-08-24T08:22:50;98424.41;;;33.38;43.51
33161;BME280;19522;45.656;11.302;2023-08-24T08:25:16;98438.31;;;33.65;43.28
33161;BME280;19522;45.656;11.302;2023-08-24T08:27:43;98395.63;;;33.42;42.52
33161;BME280;19522;45.656;11.302;2023-08-24T08:30:09;98441.41;;;33.72;41.74
33161;BME280;19522;45.656;11.302;2023-08-24T08:32:38;98451.00;;;33.50;42.75
33161;BME280;19522;45.656;11.302;2023-08-24T08:35:04;98442.28;;;33.64;42.36
33161;BME280;19522;45.656;11.302;2023-08-24T08:37:32;98426.75;;;33.88;41.21
33161;BME280;19522;45.656;11.302;2023-08-24T08:39:58;98419.13;;;33.88;41.36
33161;BME280;19522;45.656;11.302;2023-08-24T08:42:24;98432.38;;;33.88;40.04
33161;BME280;19522;45.656;11.302;2023-08-24T08:44:49;98418.84;;;33.30;40.64
33161;BME280;19522;45.656;11.302;2023-08-24T08:47:18;98439.78;;;33.71;41.07
33161;BME280;19522;45.656;11.302;2023-08-24T08:49:45;98442.81;;;33.87;41.13
33161;BME280;19522;45.656;11.302;2023-08-24T08:52:12;98443.19;;;33.55;40.14
33161;BME280;19522;45.656;11.302;2023-08-24T08:54:38;98426.44;;;33.38;40.89
33161;BME280;19522;45.656;11.302;2023-08-24T08:57:04;98445.19;;;33.76;41.16
33161;BME280;19522;45.656;11.302;2023-08-24T08:59:30;98413.97;;;33.69;39.38
33161;BME280;19522;45.656;11.302;2023-08-24T09:02:00;98434.06;;;33.80;39.95
33161;BME280;19522;45.656;11.302;2023-08-24T09:04:27;98423.16;;;33.78;39.67
33161;BME280;19522;45.656;11.302;2023-08-24T09:06:54;98421.75;;;33.84;40.57
33161;BME280;19522;45.656;11.302;2023-08-24T09:09:21;98426.97;;;34.16;39.83
33161;BME280;19522;45.656;11.302;2023-08-24T09:11:48;98426.53;;;34.14;39.41
33161;BME280;19522;45.656;11.302;2023-08-24T09:14:14;98413.53;;;34.00;40.00
33161;BME280;19522;45.656;11.302;2023-08-24T09:16:41;98418.63;;;34.07;39.46
33161;BME280;19522;45.656;11.302;2023-08-24T09:19:06;98399.59;;;33.83;39.45
33161;BME280;19522;45.656;11.302;2023-08-24T09:21:38;98414.91;;;33.73;40.28
33161;BME280;19522;45.656;11.302;2023-08-24T09:24:05;98390.78;;;33.84;39.58
33161;BME280;19522;45.656;11.302;2023-08-24T09:26:34;98410.38;;;34.02;39.96
33161;BME280;19522;45.656;11.302;2023-08-24T09:29:11;98411.41;;;33.97;40.73
33161;BME280;19522;45.656;11.302;2023-08-24T09:31:40;98404.22;;;34.21;41.05
33161;BME280;19522;45.656;11.302;2023-08-24T09:34:06;98407.19;;;34.25;39.61
33161;BME280;19522;45.656;11.302;2023-08-24T09:36:35;98406.25;;;34.33;39.60
33161;BME280;19522;45.656;11.302;2023-08-24T09:39:05;98405.56;;;34.36;40.08
33161;BME280;19522;45.656;11.302;2023-08-24T09:41:39;98407.31;;;34.28;39.42
33161;BME280;19522;45.656;11.302;2023-08-24T09:44:05;98406.00;;;34.26;39.45
33161;BME280;19522;45.656;11.302;2023-08-24T09:46:31;98406.00;;;34.26;40.12
33161;BME280;19522;45.656;11.302;2023-08-24T09:48:56;98392.59;;;34.23;40.05
33161;BME280;19522;45.656;11.302;2023-08-24T09:51:26;98397.47;;;34.01;40.19
33161;BME280;19522;45.656;11.302;2023-08-24T09:53:52;98388.13;;;34.22;40.35
33161;BME280;19522;45.656;11.302;2023-08-24T09:56:23;98393.78;;;34.22;39.61
33161;BME280;19522;45.656;11.302;2023-08-24T09:58:51;98382.09;;;33.98;40.44
33161;BME280;19522;45.656;11.302;2023-08-24T10:01:19;98384.38;;;34.17;39.98
33161;BME280;19522;45.656;11.302;2023-08-24T10:03:46;98355.53;;;33.87;40.35
33161;BME280;19522;45.656;11.302;2023-08-24T10:06:13;98368.63;;;33.83;40.65
33161;BME280;19522;45.656;11.302;2023-08-24T10:08:43;98386.94;;;34.10;41.02
33161;BME280;19522;45.656;11.302;2023-08-24T10:11:10;98352.81;;;33.91;40.88
33161;BME280;19522;45.656;11.302;2023-08-24T10:13:36;98397.38;;;34.10;41.03
33161;BME280;19522;45.656;11.302;2023-08-24T10:16:05;98384.22;;;34.01;41.52
33161;BME280;19522;45.656;11.302;2023-08-24T10:18:31;98356.25;;;33.96;40.53
33161;BME280;19522;45.656;11.302;2023-08-24T10:20:57;98366.72;;;33.96;41.01
33161;BME280;19522;45.656;11.302;2023-08-24T10:23:22;98387.41;;;34.12;41.31
33161;BME280;19522;45.656;11.302;2023-08-24T10:25:51;98389.84;;;34.35;40.79
33161;BME280;19522;45.656;11.302;2023-08-24T10:28:20;98358.00;;;34.34;40.05
33161;BME280;19522;45.656;11.302;2023-08-24T10:30:49;98388.38;;;34.75;39.68
33161;BME280;19522;45.656;11.302;2023-08-24T10:33:16;98388.06;;;35.01;39.55
33161;BME280;19522;45.656;11.302;2023-08-24T10:35:44;98360.44;;;35.07;39.09
33161;BME280;19522;45.656;11.302;2023-08-24T10:38:30;98372.28;;;34.88;39.41
33161;BME280;19522;45.656;11.302;2023-08-24T10:41:03;98377.13;;;34.87;40.71
33161;BME280;19522;45.656;11.302;2023-08-24T10:43:29;98378.28;;;34.74;39.51
33161;BME280;19522;45.656;11.302;2023-08-24T10:45:55;98377.47;;;34.73;39.13
33161;BME280;19522;45.656;11.302;2023-08-24T10:48:29;98318.81;;;34.54;40.12
33161;BME280;19522;45.656;11.302;2023-08-24T10:53:59;98376.19;;;34.95;39.70
33161;BME280;19522;45.656;11.302;2023-08-24T10:56:37;98353.25;;;34.72;38.97
33161;BME280;19522;45.656;11.302;2023-08-24T10:59:16;98369.13;;;34.89;39.12
33161;BME280;19522;45.656;11.302;2023-08-24T11:04:17;98368.66;;;35.12;38.53
33161;BME280;19522;45.656;11.302;2023-08-24T11:06:59;98369.72;;;35.20;39.30
33161;BME280;19522;45.656;11.302;2023-08-24T11:09:44;98360.66;;;35.02;38.73
33161;BME280;19522;45.656;11.302;2023-08-24T11:12:10;98360.44;;;35.19;39.46
33161;BME280;19522;45.656;11.302;2023-08-24T11:14:48;98356.50;;;35.36;38.12
33161;BME280;19522;45.656;11.302;2023-08-24T11:17:18;98316.84;;;34.92;38.68
33161;BME280;19522;45.656;11.302;2023-08-24T11:19:53;98351.03;;;35.03;39.31
33161;BME280;19522;45.656;11.302;2023-08-24T11:22:20;98354.69;;;34.91;39.05
33161;BME280;19522;45.656;11.302;2023-08-24T11:24:46;98351.16;;;35.06;39.47
33161;BME280;19522;45.656;11.302;2023-08-24T11:27:12;98343.88;;;35.05;38.28
33161;BME280;19522;45.656;11.302;2023-08-24T11:29:38;98318.50;;;34.93;39.14
33161;BME280;19522;45.656;11.302;2023-08-24T11:32:03;98346.84;;;35.37;39.37
33161;BME280;19522;45.656;11.302;2023-08-24T11:34:33;98321.69;;;35.45;38.70
33161;BME280;19522;45.656;11.302;2023-08-24T11:36:59;98337.13;;;35.47;38.98
33161;BME280;19522;45.656;11.302;2023-08-24T11:39:25;98343.28;;;35.65;38.53
33161;BME280;19522;45.656;11.302;2023-08-24T11:42:04;98288.66;;;35.33;38.23
33161;BME280;19522;45.656;11.302;2023-08-24T11:44:50;98331.94;;;35.49;37.28
33161;BME280;19522;45.656;11.302;2023-08-24T11:47:19;98335.38;;;35.71;38.03
33161;BME280;19522;45.656;11.302;2023-08-24T11:49:46;98326.44;;;35.97;37.22
33161;BME280;19522;45.656;11.302;2023-08-24T11:52:11;98306.81;;;35.88;36.83
33161;BME280;19522;45.656;11.302;2023-08-24T11:54:41;98321.84;;;36.21;36.71
33161;BME280;19522;45.656;11.302;2023-08-24T11:57:08;98297.59;;;36.20;37.14
33161;BME280;19522;45.656;11.302;2023-08-24T11:59:35;98285.66;;;36.11;36.25
33161;BME280;19522;45.656;11.302;2023-08-24T12:02:01;98323.91;;;36.08;37.70
33161;BME280;19522;45.656;11.302;2023-08-24T12:04:27;98294.38;;;35.61;37.10
33161;BME280;19522;45.656;11.302;2023-08-24T12:06:52;98293.38;;;35.69;36.80
33161;BME280;19522;45.656;11.302;2023-08-24T12:09:18;98313.53;;;35.68;36.28
33161;BME280;19522;45.656;11.302;2023-08-24T12:11:43;98316.47;;;36.16;36.77
33161;BME280;19522;45.656;11.302;2023-08-24T12:14:16;98289.84;;;36.17;35.90
33161;BME280;19522;45.656;11.302;2023-08-24T12:16:42;98284.47;;;35.96;36.76
33161;BME280;19522;45.656;11.302;2023-08-24T12:19:08;98297.59;;;36.04;36.12
33161;BME280;19522;45.656;11.302;2023-08-24T12:21:33;98264.25;;;35.81;36.17
33161;BME280;19522;45.656;11.302;2023-08-24T12:24:03;98299.69;;;36.39;37.79
33161;BME280;19522;45.656;11.302;2023-08-24T12:26:31;98293.50;;;36.33;36.14
33161;BME280;19522;45.656;11.302;2023-08-24T12:29:02;98222.25;;;35.80;35.93
33161;BME280;19522;45.656;11.302;2023-08-24T12:31:28;98278.91;;;36.63;35.43
33161;BME280;19522;45.656;11.302;2023-08-24T12:33:59;98280.53;;;36.97;35.58
33161;BME280;19522;45.656;11.302;2023-08-24T12:36:25;98274.50;;;36.82;34.51
33161;BME280;19522;45.656;11.302;2023-08-24T12:38:50;98269.47;;;36.91;34.83
33161;BME280;19522;45.656;11.302;2023-08-24T12:41:16;98275.66;;;36.97;34.99
33161;BME280;19522;45.656;11.302;2023-08-24T12:43:41;98277.84;;;36.88;34.68
33161;BME280;19522;45.656;11.302;2023-08-24T12:46:07;98265.38;;;36.73;34.27
33161;BME280;19522;45.656;11.302;2023-08-24T12:48:32;98271.91;;;36.41;34.73
33161;BME280;19522;45.656;11.302;2023-08-24T12:50:58;98243.00;;;36.32;34.97
33161;BME280;19522;45.656;11.302;2023-08-24T12:53:23;98266.13;;;36.70;34.54
33161;BME280;19522;45.656;11.302;2023-08-24T12:55:49;98232.78;;;36.27;34.55